KJOT/JOT METAR and TAF weather

Enter ICAO airport designator
Station Type Date Time Source
KJOT METAR 2020/09/18 06:35 UTC NOAA

KJOT 180635Z AUTO 36004KT 10SM CLR 13/10 A3021 RMK AO2 T01260100


Station Type Date Time Source
KJOT Decoded METAR 2020/09/18 06:35 UTC NOAA

Joliet, Joliet Regional Airport, IL, United States (KJOT) 41-31-05N 088-10-31W
Sep 18, 2020 - 02:35 AM EDT / 2020.09.18 0635 UTC
Wind: from the N (360 degrees) at 5 MPH (4 KT):0
Visibility: 10 mile(s):0
Sky conditions: clear
Temperature: 54.7 F (12.6 C)
Dew Point: 50.0 F (10.0 C)
Relative Humidity: 84%
Pressure (altimeter): 30.21 in. Hg (1023 hPa)
ob: KJOT 180635Z AUTO 36004KT 10SM CLR 13/10 A3021 RMK AO2 T01260100
cycle: 6

Station Type Date Time Source
KJOT TAF UTC NOAA

Error!

Example: see airport list